Time;durP1;ratioP1;P1;durP2;ratioP2;P2;SDS_P1;SDS_P2;PMS_P1;PMS_P2;Temp;Humidity;BMP_temperature;BMP_pressure;BME280_temperature;BME280_humidity;BME280_pressure;Samples;Min_cycle;Max_cycle;Signal;HPM_P1;HPM_P2
2024/01/07 00:00:20;;;;;;;;;5.75;5.25;;;;;-146.67;100.00;57155.34;5062402;28;62782;-80
2024/01/07 00:02:45;;;;;;;;;8.00;6.25;;;;;-146.67;100.00;57155.34;5062155;28;61837;-80
2024/01/07 00:05:10;;;;;;;;;5.00;5.00;;;;;-146.67;100.00;57155.34;5062430;28;61852;-80
2024/01/07 00:07:36;;;;;;;;;5.25;2.50;;;;;-146.67;100.00;57155.34;5061604;28;62645;-80
2024/01/07 00:10:01;;;;;;;;;7.00;3.50;;;;;-146.67;100.00;57155.34;5062216;28;61989;-80
2024/01/07 00:12:26;;;;;;;;;4.75;4.00;;;;;-146.67;100.00;57155.34;5062552;28;61813;-80
2024/01/07 00:14:52;;;;;;;;;4.00;1.00;;;;;-146.67;100.00;57155.34;5062172;28;61840;-80
2024/01/07 00:17:17;;;;;;;;;1.00;1.00;;;;;-146.67;100.00;57155.34;5061835;28;61813;-79
2024/01/07 00:19:42;;;;;;;;;5.50;2.50;;;;;-146.67;100.00;57155.34;5044390;28;61963;-80
2024/01/07 00:22:08;;;;;;;;;2.75;2.00;;;;;-146.67;100.00;57155.34;5062393;28;61764;-80
2024/01/07 00:24:33;;;;;;;;;2.00;2.00;;;;;-146.67;100.00;57155.34;5062708;28;61974;-80
2024/01/07 00:26:58;;;;;;;;;3.50;3.00;;;;;-146.67;100.00;57155.34;5061149;28;62860;-80
2024/01/07 00:29:24;;;;;;;;;1.50;1.25;;;;;-146.67;100.00;57155.34;5061830;28;61818;-80
2024/01/07 00:31:49;;;;;;;;;9.00;2.00;;;;;-146.67;100.00;57155.34;5062077;28;61944;-80
2024/01/07 00:34:14;;;;;;;;;2.25;1.00;;;;;-146.67;100.00;57155.34;5043954;28;61739;-80
2024/01/07 00:36:40;;;;;;;;;1.25;0.50;;;;;-146.67;100.00;57155.34;5061504;28;61831;-80
2024/01/07 00:39:05;;;;;;;;;2.00;1.25;;;;;-146.67;100.00;57155.34;5044081;28;61897;-80
2024/01/07 00:41:31;;;;;;;;;2.25;1.00;;;;;-146.67;100.00;57155.34;5061675;28;62388;-79
2024/01/07 00:43:56;;;;;;;;;5.00;1.00;;;;;-146.67;100.00;57155.34;5061995;28;61837;-80
2024/01/07 00:46:22;;;;;;;;;0.00;0.00;;;;;-146.67;100.00;57155.34;5061479;28;62502;-80
2024/01/07 00:48:47;;;;;;;;;1.25;1.25;;;;;-146.67;100.00;57155.34;5062803;28;61734;-80
2024/01/07 00:51:13;;;;;;;;;2.00;1.00;;;;;-146.67;100.00;57155.34;5065296;28;62193;-80
2024/01/07 00:53:38;;;;;;;;;0.00;0.00;;;;;-146.67;100.00;57155.34;5065778;28;61911;-80
2024/01/07 00:56:04;;;;;;;;;1.00;1.00;;;;;-146.67;100.00;57155.34;5064525;28;61794;-80
2024/01/07 00:58:29;;;;;;;;;1.00;1.00;;;;;-146.67;100.00;57155.34;5065234;28;61676;-80
2024/01/07 01:00:55;;;;;;;;;1.00;1.00;;;;;-146.67;100.00;57155.34;5065173;28;61919;-79
2024/01/07 01:03:20;;;;;;;;;1.00;1.00;;;;;-146.67;100.00;57155.34;5065673;28;61956;-80
2024/01/07 01:05:46;;;;;;;;;1.00;1.00;;;;;-146.67;100.00;57155.34;5064012;28;61742;-79
2024/01/07 01:08:11;;;;;;;;;1.00;1.00;;;;;-146.67;100.00;57155.34;5065052;28;61793;-80
2024/01/07 01:10:37;;;;;;;;;1.00;1.00;;;;;-146.67;100.00;57155.34;5065091;28;61894;-80
2024/01/07 01:13:03;;;;;;;;;1.00;1.00;;;;;-146.67;100.00;57155.34;5065044;28;61839;-80
2024/01/07 01:15:28;;;;;;;;;1.00;1.00;;;;;-146.67;100.00;57155.34;5064723;28;62827;-80
2024/01/07 01:17:53;;;;;;;;;1.00;1.00;;;;;-146.67;100.00;57155.34;5065124;28;61695;-80
2024/01/07 01:20:19;;;;;;;;;1.00;1.00;;;;;-146.67;100.00;57155.34;5065197;28;61733;-80
2024/01/07 01:22:44;;;;;;;;;3.00;1.00;;;;;-146.67;100.00;57155.34;5046917;28;61832;-80
2024/01/07 01:25:10;;;;;;;;;0.75;0.75;;;;;-146.67;100.00;57155.34;5064227;28;62012;-80
2024/01/07 01:27:35;;;;;;;;;5.25;1.00;;;;;-146.67;100.00;57155.34;5064585;28;61839;-79
2024/01/07 01:30:01;;;;;;;;;1.00;1.00;;;;;-146.67;100.00;57155.34;5064773;28;61718;-79
2024/01/07 01:32:26;;;;;;;;;2.25;1.00;;;;;-146.67;100.00;57155.34;5046963;28;61996;-80
2024/01/07 01:34:51;;;;;;;;;1.00;1.00;;;;;-146.67;100.00;57155.34;5064076;28;62043;-80
2024/01/07 01:37:17;;;;;;;;;0.75;0.75;;;;;-146.67;100.00;57155.34;5064703;28;61637;-80
2024/01/07 01:39:42;;;;;;;;;1.00;1.00;;;;;-146.67;100.00;57155.34;5064931;28;61756;-79
2024/01/07 01:42:07;;;;;;;;;1.00;1.00;;;;;-146.67;100.00;57155.34;5064257;28;62158;-80
2024/01/07 01:44:34;;;;;;;;;0.75;0.75;;;;;-146.67;100.00;57155.34;5064050;28;61895;-80
2024/01/07 01:47:00;;;;;;;;;1.00;1.00;;;;;-146.67;100.00;57155.34;5064818;28;61798;-80
2024/01/07 01:49:27;;;;;;;;;4.00;0.50;;;;;-146.67;100.00;57155.34;5064830;28;62020;-80
2024/01/07 01:51:55;;;;;;;;;0.50;0.00;;;;;-146.67;100.00;57155.34;5064663;28;62078;-80
2024/01/07 01:54:21;;;;;;;;;2.00;1.00;;;;;-146.67;100.00;57155.34;5063733;28;61847;-79
2024/01/07 01:56:48;;;;;;;;;1.00;0.00;;;;;-146.67;100.00;57155.34;5064338;28;61997;-80
2024/01/07 01:59:14;;;;;;;;;1.00;1.00;;;;;-146.67;100.00;57155.34;5046384;28;62202;-80
2024/01/07 02:01:40;;;;;;;;;1.00;1.00;;;;;-146.67;100.00;57155.34;5064565;28;61821;-80
2024/01/07 02:04:06;;;;;;;;;1.00;0.75;;;;;-146.67;100.00;57155.34;5063268;28;62947;-79
2024/01/07 02:06:31;;;;;;;;;1.00;1.00;;;;;-146.67;100.00;57155.34;5063875;28;61906;-80
2024/01/07 02:08:57;;;;;;;;;1.25;1.00;;;;;-146.67;100.00;57155.34;5064127;28;61706;-78
2024/01/07 02:11:22;;;;;;;;;0.00;0.00;;;;;-146.67;100.00;57155.34;5064035;28;62176;-80
2024/01/07 02:13:48;;;;;;;;;1.00;1.00;;;;;-146.67;100.00;57155.34;5045645;28;63958;-79
2024/01/07 02:16:14;;;;;;;;;2.25;1.00;;;;;-146.67;100.00;57155.34;5045905;28;61921;-80
2024/01/07 02:18:42;;;;;;;;;2.50;1.00;;;;;-146.67;100.00;57155.34;5064477;28;61951;-80
2024/01/07 02:21:08;;;;;;;;;0.00;0.00;;;;;-146.67;100.00;57155.34;5064481;28;61774;-79
2024/01/07 02:23:34;;;;;;;;;2.00;1.00;;;;;-146.67;100.00;57155.34;5063185;28;61777;-80
2024/01/07 02:25:59;;;;;;;;;5.00;2.00;;;;;-146.67;100.00;57155.34;5063785;28;61822;-80
2024/01/07 02:28:24;;;;;;;;;1.00;1.00;;;;;-146.67;100.00;57155.34;5045977;28;61947;-80
2024/01/07 02:30:50;;;;;;;;;5.25;1.75;;;;;-146.67;100.00;57155.34;5064277;28;62002;-80
2024/01/07 02:33:15;;;;;;;;;1.75;1.75;;;;;-146.67;100.00;57155.34;5061854;28;63959;-80
2024/01/07 02:35:40;;;;;;;;;1.50;1.50;;;;;-146.67;100.00;57155.34;5063524;28;61964;-80
2024/01/07 02:38:06;;;;;;;;;0.00;0.00;;;;;-146.67;100.00;57155.34;5062370;28;61853;-80
2024/01/07 02:40:31;;;;;;;;;2.00;1.00;;;;;-146.67;100.00;57155.34;5063526;28;62025;-80
2024/01/07 02:42:58;;;;;;;;;1.00;0.00;;;;;-146.67;100.00;57155.34;5063139;28;62307;-79
2024/01/07 02:45:23;;;;;;;;;2.00;1.00;;;;;-146.67;100.00;57155.34;5063760;28;61944;-80
2024/01/07 02:47:48;;;;;;;;;4.00;1.00;;;;;-146.67;100.00;57155.34;5062309;28;61870;-80
2024/01/07 02:50:14;;;;;;;;;1.50;0.75;;;;;-146.67;100.00;57155.34;5062672;28;61844;-79
2024/01/07 02:52:39;;;;;;;;;5.00;2.00;;;;;-146.67;100.00;57155.34;5061211;28;64096;-80
2024/01/07 02:55:05;;;;;;;;;1.25;1.00;;;;;-146.67;100.00;57155.34;5063306;28;61722;-80
2024/01/07 02:57:30;;;;;;;;;1.00;1.00;;;;;-146.67;100.00;57155.34;5063728;28;61917;-80
2024/01/07 02:59:56;;;;;;;;;1.00;0.00;;;;;-146.67;100.00;57155.34;5063721;28;61722;-80
2024/01/07 03:02:21;;;;;;;;;0.00;0.00;;;;;-146.67;100.00;57155.34;5062882;28;61741;-80
2024/01/07 03:04:47;;;;;;;;;2.75;2.00;;;;;-146.67;100.00;57155.34;5063082;28;61938;-80
2024/01/07 03:07:12;;;;;;;;;1.75;1.75;;;;;-146.67;100.00;57155.34;5062582;28;62013;-79
2024/01/07 03:09:37;;;;;;;;;1.00;1.00;;;;;-146.67;100.00;57155.34;5063681;28;61731;-80
2024/01/07 03:12:03;;;;;;;;;1.25;1.00;;;;;-146.67;100.00;57155.34;5061708;28;62694;-80
2024/01/07 03:14:28;;;;;;;;;1.00;1.00;;;;;-146.67;100.00;57155.34;5063263;28;61810;-80
2024/01/07 03:16:54;;;;;;;;;3.25;1.25;;;;;-146.67;100.00;57155.34;5063338;28;61900;-80
2024/01/07 03:19:20;;;;;;;;;0.00;0.00;;;;;-146.67;100.00;57155.34;5063431;28;61775;-80
2024/01/07 03:21:46;;;;;;;;;1.00;0.00;;;;;-146.67;100.00;57155.34;5062051;28;61868;-80
2024/01/07 03:24:11;;;;;;;;;0.25;0.25;;;;;-146.67;100.00;57155.34;5045226;28;62070;-80
2024/01/07 03:26:36;;;;;;;;;4.00;2.00;;;;;-146.67;100.00;57155.34;5062914;28;61960;-80
2024/01/07 03:29:02;;;;;;;;;1.25;1.00;;;;;-146.67;100.00;57155.34;5063421;28;61792;-78
2024/01/07 03:31:28;;;;;;;;;1.00;1.00;;;;;-146.67;100.00;57155.34;5062321;28;62344;-80
2024/01/07 03:33:54;;;;;;;;;3.75;1.00;;;;;-146.67;100.00;57155.34;5044452;28;61858;-80
2024/01/07 03:36:19;;;;;;;;;1.25;1.25;;;;;-146.67;100.00;57155.34;5062866;28;61701;-80
2024/01/07 03:38:45;;;;;;;;;2.50;2.00;;;;;-146.67;100.00;57155.34;5063143;28;61624;-80
2024/01/07 03:41:18;;;;;;;;;3.00;1.00;;;;;-146.67;100.00;57155.34;5061990;28;62689;-79
2024/01/07 03:43:44;;;;;;;;;4.00;2.00;;;;;-146.67;100.00;57155.34;5062866;28;62016;-80
2024/01/07 03:46:10;;;;;;;;;5.50;1.50;;;;;-146.67;100.00;57155.34;5044870;28;61992;-79
2024/01/07 03:48:35;;;;;;;;;2.00;1.00;;;;;-146.67;100.00;57155.34;5062870;28;61897;-80
2024/01/07 03:51:00;;;;;;;;;1.00;0.00;;;;;-146.67;100.00;57155.34;5061911;28;61805;-80
2024/01/07 03:53:26;;;;;;;;;4.50;1.25;;;;;-146.67;100.00;57155.34;5062585;28;61859;-79
2024/01/07 03:55:51;;;;;;;;;1.00;1.00;;;;;-146.67;100.00;57155.34;5062564;28;61911;-80
2024/01/07 03:58:17;;;;;;;;;1.00;1.00;;;;;-146.67;100.00;57155.34;5063055;28;61943;-80
2024/01/07 04:00:42;;;;;;;;;1.00;1.00;;;;;-146.67;100.00;57155.34;5061924;28;62003;-80
2024/01/07 04:03:07;;;;;;;;;1.50;0.50;;;;;-146.67;100.00;57155.34;5044568;28;61858;-80
2024/01/07 04:05:33;;;;;;;;;2.50;1.75;;;;;-146.67;100.00;57155.34;5061657;28;62072;-80
2024/01/07 04:08:01;;;;;;;;;3.50;1.00;;;;;-146.67;100.00;57155.34;5062447;28;62079;-80
2024/01/07 04:10:26;;;;;;;;;1.00;1.00;;;;;-146.67;100.00;57155.34;5061695;28;61716;-80
2024/01/07 04:12:51;;;;;;;;;2.75;2.75;;;;;-146.67;100.00;57155.34;5060968;28;61802;-80
2024/01/07 04:15:17;;;;;;;;;0.00;0.00;;;;;-146.67;100.00;57155.34;5062719;28;61941;-80
2024/01/07 04:17:42;;;;;;;;;1.00;0.00;;;;;-146.67;100.00;57155.34;5044530;28;61810;-80
2024/01/07 04:20:08;;;;;;;;;0.75;0.75;;;;;-146.67;100.00;57155.34;5061622;28;61885;-80
2024/01/07 04:22:33;;;;;;;;;3.00;0.75;;;;;-146.67;100.00;57155.34;5062322;28;61933;-80
2024/01/07 04:24:58;;;;;;;;;1.25;1.25;;;;;-146.67;100.00;57155.34;5064776;28;61805;-80
2024/01/07 04:27:24;;;;;;;;;1.50;0.75;;;;;-146.67;100.00;57155.34;5066032;28;61908;-80
2024/01/07 04:29:50;;;;;;;;;2.00;0.25;;;;;-146.67;100.00;57155.34;5065275;28;62629;-80
2024/01/07 04:32:16;;;;;;;;;1.00;1.00;;;;;-146.67;100.00;57155.34;5047698;28;61795;-80
2024/01/07 04:34:41;;;;;;;;;4.00;1.25;;;;;-146.67;100.00;57155.34;5047011;28;61973;-80
2024/01/07 04:37:06;;;;;;;;;2.00;1.00;;;;;-146.67;100.00;57155.34;5047829;28;61746;-80
2024/01/07 04:39:32;;;;;;;;;4.00;1.00;;;;;-146.67;100.00;57155.34;5065124;28;61819;-80
2024/01/07 04:41:57;;;;;;;;;1.00;1.00;;;;;-146.67;100.00;57155.34;5065325;28;61982;-80
2024/01/07 04:44:22;;;;;;;;;1.00;1.00;;;;;-146.67;100.00;57155.34;5066006;28;61938;-80
2024/01/07 04:46:49;;;;;;;;;1.75;0.75;;;;;-146.67;100.00;57155.34;5065778;28;61887;-80
2024/01/07 04:49:14;;;;;;;;;1.00;1.00;;;;;-146.67;100.00;57155.34;5064678;28;61857;-80
2024/01/07 04:51:39;;;;;;;;;0.00;0.00;;;;;-146.67;100.00;57155.34;5065594;28;61825;-79
2024/01/07 04:54:05;;;;;;;;;2.50;2.00;;;;;-146.67;100.00;57155.34;5065553;28;62577;-80
2024/01/07 04:56:31;;;;;;;;;2.50;1.00;;;;;-146.67;100.00;57155.34;5047273;28;62121;-80
2024/01/07 04:58:57;;;;;;;;;3.25;1.25;;;;;-146.67;100.00;57155.34;5046707;28;63778;-80
2024/01/07 05:01:22;;;;;;;;;5.00;1.00;;;;;-146.67;100.00;57155.34;5047134;28;61949;-80
2024/01/07 05:03:47;;;;;;;;;1.00;1.00;;;;;-146.67;100.00;57155.34;5064716;28;61838;-79
2024/01/07 05:06:13;;;;;;;;;3.75;1.00;;;;;-146.67;100.00;57155.34;5046907;28;61858;-79
2024/01/07 05:08:40;;;;;;;;;4.00;1.50;;;;;-146.67;100.00;57155.34;5064756;28;61976;-80
2024/01/07 05:11:06;;;;;;;;;2.00;1.00;;;;;-146.67;100.00;57155.34;5065146;28;62116;-80
2024/01/07 05:13:31;;;;;;;;;7.25;1.00;;;;;-146.67;100.00;57155.34;5047079;28;61736;-79
2024/01/07 05:15:56;;;;;;;;;1.00;1.00;;;;;-146.67;100.00;57155.34;5047142;28;62194;-79
2024/01/07 05:18:23;;;;;;;;;4.00;1.75;;;;;-146.67;100.00;57155.34;5064308;28;61780;-80
2024/01/07 05:20:49;;;;;;;;;1.00;1.00;;;;;-146.67;100.00;57155.34;5065217;28;62234;-80
2024/01/07 05:23:15;;;;;;;;;2.75;0.00;;;;;-146.67;100.00;57155.34;5065047;28;61807;-80
2024/01/07 05:25:44;;;;;;;;;1.75;1.00;;;;;-146.67;100.00;57155.34;5065018;28;61966;-80
2024/01/07 05:28:10;;;;;;;;;0.50;0.50;;;;;-146.67;100.00;57155.34;5045969;28;64777;-81
2024/01/07 05:30:36;;;;;;;;;2.50;1.25;;;;;-146.67;100.00;57155.34;5064773;28;61798;-80
2024/01/07 05:33:02;;;;;;;;;1.75;1.00;;;;;-146.67;100.00;57155.34;5064664;28;62023;-80
2024/01/07 05:35:27;;;;;;;;;1.00;1.00;;;;;-146.67;100.00;57155.34;5064109;28;61799;-80
2024/01/07 05:37:53;;;;;;;;;0.50;0.50;;;;;-146.67;100.00;57155.34;5062792;28;63826;-80
2024/01/07 05:40:18;;;;;;;;;1.75;1.75;;;;;-146.67;100.00;57155.34;5064353;28;61945;-79
2024/01/07 05:42:43;;;;;;;;;2.00;1.00;;;;;-146.67;100.00;57155.34;5064732;28;62161;-80
2024/01/07 05:45:09;;;;;;;;;5.75;1.00;;;;;-146.67;100.00;57155.34;5065013;28;62189;-80
2024/01/07 05:47:34;;;;;;;;;1.50;1.00;;;;;-146.67;100.00;57155.34;5062612;28;63660;-80
2024/01/07 05:50:00;;;;;;;;;2.50;1.25;;;;;-146.67;100.00;57155.34;5064527;28;61821;-79
2024/01/07 05:52:25;;;;;;;;;1.00;1.00;;;;;-146.67;100.00;57155.34;5046487;28;62440;-80
2024/01/07 05:54:50;;;;;;;;;1.75;1.75;;;;;-146.67;100.00;57155.34;5064929;28;61905;-80
2024/01/07 05:57:16;;;;;;;;;1.00;1.00;;;;;-146.67;100.00;57155.34;5064569;28;61790;-80
2024/01/07 05:59:44;;;;;;;;;4.50;2.00;;;;;-146.67;100.00;57155.34;5064784;28;61973;-80
2024/01/07 06:02:09;;;;;;;;;4.75;2.00;;;;;-146.67;100.00;57155.34;5063819;28;62096;-79
2024/01/07 06:04:34;;;;;;;;;1.75;1.75;;;;;-146.67;100.00;57155.34;5064308;28;61818;-80
2024/01/07 06:07:00;;;;;;;;;3.75;1.00;;;;;-146.67;100.00;57155.34;5063493;28;62854;-80
2024/01/07 06:09:25;;;;;;;;;0.75;0.75;;;;;-146.67;100.00;57155.34;5064182;28;61892;-80
2024/01/07 06:11:50;;;;;;;;;1.00;1.00;;;;;-146.67;100.00;57155.34;5045749;28;62032;-80
2024/01/07 06:14:16;;;;;;;;;6.25;2.00;;;;;-146.67;100.00;57155.34;5064363;28;62230;-80
2024/01/07 06:16:42;;;;;;;;;1.25;1.00;;;;;-146.67;100.00;57155.34;5063196;28;61830;-80
2024/01/07 06:19:07;;;;;;;;;0.25;0.25;;;;;-146.67;100.00;57155.34;5064334;28;61853;-80
2024/01/07 06:21:33;;;;;;;;;2.00;1.00;;;;;-146.67;100.00;57155.34;5045842;28;61784;-80
2024/01/07 06:23:58;;;;;;;;;4.50;2.00;;;;;-146.67;100.00;57155.34;5046347;28;62049;-80
2024/01/07 06:26:23;;;;;;;;;1.00;1.00;;;;;-146.67;100.00;57155.34;5045066;28;64962;-80
2024/01/07 06:28:50;;;;;;;;;2.00;1.00;;;;;-146.67;100.00;57155.34;5063932;28;61877;-80
2024/01/07 06:31:15;;;;;;;;;1.50;1.50;;;;;-146.67;100.00;57155.34;5045433;28;61824;-80
2024/01/07 06:33:40;;;;;;;;;1.00;1.00;;;;;-146.67;100.00;57155.34;5063573;28;62287;-80
2024/01/07 06:36:06;;;;;;;;;2.50;2.50;;;;;-146.67;100.00;57155.34;5063228;28;61833;-80
2024/01/07 06:38:31;;;;;;;;;2.50;1.00;;;;;-146.67;100.00;57155.34;5062551;28;61987;-80
2024/01/07 06:41:00;;;;;;;;;3.75;2.00;;;;;-146.67;100.00;57155.34;5063639;28;61879;-80
2024/01/07 06:43:27;;;;;;;;;1.00;1.00;;;;;-146.67;100.00;57155.34;5063953;28;62219;-80
2024/01/07 06:45:53;;;;;;;;;2.50;1.25;;;;;-146.67;100.00;57155.34;5062591;28;61852;-80
2024/01/07 06:48:19;;;;;;;;;1.25;1.00;;;;;-146.67;100.00;57155.34;5063101;28;61859;-80
2024/01/07 06:50:44;;;;;;;;;1.00;1.00;;;;;-146.67;100.00;57155.34;5062402;28;61897;-80
2024/01/07 06:53:09;;;;;;;;;2.00;0.00;;;;;-146.67;100.00;57155.34;5063797;28;61926;-80
2024/01/07 06:55:36;;;;;;;;;2.00;1.00;;;;;-146.67;100.00;57155.34;5061484;28;64741;-79
2024/01/07 06:58:02;;;;;;;;;0.00;0.00;;;;;-146.67;100.00;57155.34;5063700;28;61810;-80
2024/01/07 07:00:27;;;;;;;;;0.00;0.00;;;;;-146.67;100.00;57155.34;5063189;28;61771;-80
2024/01/07 07:02:52;;;;;;;;;1.00;1.00;;;;;-146.67;100.00;57155.34;5062237;28;61948;-79
2024/01/07 07:05:18;;;;;;;;;4.00;2.00;;;;;-146.67;100.00;57155.34;5062247;28;62582;-80
2024/01/07 07:07:43;;;;;;;;;2.00;1.00;;;;;-146.67;100.00;57155.34;5050397;28;61874;-80
2024/01/07 07:10:08;;;;;;;;;4.00;4.00;;;;;-146.67;100.00;57155.34;5063189;28;61755;-80
2024/01/07 07:12:34;;;;;;;;;4.50;2.00;;;;;-146.67;100.00;57155.34;5046105;28;61854;-80
2024/01/07 07:14:59;;;;;;;;;2.50;2.50;;;;;-146.67;100.00;57155.34;5062406;28;61812;-80
2024/01/07 07:17:24;;;;;;;;;4.00;2.00;;;;;-146.67;100.00;57155.34;5062951;28;61780;-80
2024/01/07 07:19:50;;;;;;;;;2.00;2.00;;;;;-146.67;100.00;57155.34;5063414;28;61776;-80
2024/01/07 07:22:15;;;;;;;;;4.50;2.00;;;;;-146.67;100.00;57155.34;5063157;28;61702;-80
2024/01/07 07:24:41;;;;;;;;;4.25;1.50;;;;;-146.67;100.00;57155.34;5044365;28;63653;-80
2024/01/07 07:27:07;;;;;;;;;2.00;1.50;;;;;-146.67;100.00;57155.34;5044671;28;61771;-80
2024/01/07 07:29:32;;;;;;;;;5.25;4.25;;;;;-146.67;100.00;57155.34;5044507;28;61949;-80
2024/01/07 07:31:58;;;;;;;;;4.00;4.00;;;;;-146.67;100.00;57155.34;5062958;28;61846;-80
2024/01/07 07:34:23;;;;;;;;;1.00;1.00;;;;;-146.67;100.00;57155.34;5062646;28;61819;-80
2024/01/07 07:36:48;;;;;;;;;5.25;4.00;;;;;-146.67;100.00;57155.34;5063233;28;61918;-80
2024/01/07 07:39:14;;;;;;;;;1.00;1.00;;;;;-146.67;100.00;57155.34;5063073;28;61996;-80
2024/01/07 07:41:40;;;;;;;;;4.00;2.00;;;;;-146.67;100.00;57155.34;5062450;28;61770;-80
2024/01/07 07:44:05;;;;;;;;;4.75;3.00;;;;;-146.67;100.00;57155.34;5043956;28;64029;-80
2024/01/07 07:46:30;;;;;;;;;4.00;2.00;;;;;-146.67;100.00;57155.34;5062692;28;62135;-80
2024/01/07 07:48:56;;;;;;;;;4.00;2.00;;;;;-146.67;100.00;57155.34;5062971;28;61941;-80
2024/01/07 07:51:21;;;;;;;;;3.75;3.50;;;;;-146.67;100.00;57155.34;5062929;28;61906;-80
2024/01/07 07:53:46;;;;;;;;;5.00;2.00;;;;;-146.67;100.00;57155.34;5061996;28;61810;-80
2024/01/07 07:56:12;;;;;;;;;8.00;4.00;;;;;-146.67;100.00;57155.34;5044447;28;61741;-80
2024/01/07 07:58:38;;;;;;;;;5.00;5.00;;;;;-146.67;100.00;57155.34;5062257;28;62090;-80
2024/01/07 08:01:04;;;;;;;;;6.50;4.50;;;;;-146.67;100.00;57155.34;5062955;28;61776;-80
2024/01/07 08:03:31;;;;;;;;;6.00;3.00;;;;;-146.67;100.00;57155.34;5060978;28;61928;-80
2024/01/07 08:05:57;;;;;;;;;4.75;4.75;;;;;-146.67;100.00;57155.34;5043946;28;61985;-80
2024/01/07 08:08:22;;;;;;;;;3.00;2.00;;;;;-146.67;100.00;57155.34;5061197;28;62097;-80
2024/01/07 08:10:47;;;;;;;;;1.25;0.50;;;;;-146.67;100.00;57155.34;5061043;28;61955;-80
2024/01/07 08:13:13;;;;;;;;;5.00;2.50;;;;;-146.67;100.00;57155.34;5061196;28;61870;-81
2024/01/07 08:15:39;;;;;;;;;5.25;4.25;;;;;-146.67;100.00;57155.34;5062400;28;61984;-80
2024/01/07 08:18:05;;;;;;;;;4.00;4.00;;;;;-146.67;100.00;57155.34;5062378;28;61793;-80
2024/01/07 08:20:30;;;;;;;;;12.75;5.75;;;;;-146.67;100.00;57155.34;5062796;28;61908;-80
2024/01/07 08:22:55;;;;;;;;;4.00;4.00;;;;;-146.67;100.00;57155.34;5061805;28;62777;-80
2024/01/07 08:25:21;;;;;;;;;4.00;4.00;;;;;-146.67;100.00;57155.34;5060789;28;62010;-80
2024/01/07 08:27:47;;;;;;;;;5.50;4.25;;;;;-146.67;100.00;57155.34;5062097;28;61822;-80
2024/01/07 08:30:13;;;;;;;;;4.75;4.00;;;;;-146.67;100.00;57155.34;5062453;28;62079;-79
2024/01/07 08:32:39;;;;;;;;;6.00;2.00;;;;;-146.67;100.00;57155.34;5061513;28;61770;-80
2024/01/07 08:35:05;;;;;;;;;7.75;5.00;;;;;-146.67;100.00;57155.34;5061854;28;61763;-80
2024/01/07 08:37:30;;;;;;;;;3.50;3.00;;;;;-146.67;100.00;57155.34;5062465;28;61756;-80
2024/01/07 08:39:56;;;;;;;;;5.00;5.00;;;;;-146.67;100.00;57155.34;5044206;28;61734;-80
2024/01/07 08:42:21;;;;;;;;;3.75;2.50;;;;;-146.67;100.00;57155.34;5061021;28;61985;-80
2024/01/07 08:44:47;;;;;;;;;8.50;6.00;;;;;-146.67;100.00;57155.34;5060597;28;61757;-80
2024/01/07 08:47:13;;;;;;;;;7.50;5.25;;;;;-146.67;100.00;57155.34;5044113;28;61736;-80
2024/01/07 08:49:38;;;;;;;;;5.50;5.50;;;;;-146.67;100.00;57155.34;5044198;28;62093;-80
2024/01/07 08:52:04;;;;;;;;;5.75;5.00;;;;;-146.67;100.00;57155.34;5059927;28;63535;-81
2024/01/07 08:54:29;;;;;;;;;5.75;4.50;;;;;-146.67;100.00;57155.34;5061954;28;61831;-80
2024/01/07 08:56:55;;;;;;;;;5.00;5.00;;;;;-146.67;100.00;57155.34;5061447;28;61758;-80
2024/01/07 08:59:20;;;;;;;;;6.25;5.00;;;;;-146.67;100.00;57155.34;5062270;28;61691;-80
2024/01/07 09:01:45;;;;;;;;;4.25;4.00;;;;;-146.67;100.00;57155.34;5061259;28;62519;-80
2024/01/07 09:04:11;;;;;;;;;10.00;7.00;;;;;-146.67;100.00;57155.34;5061392;28;61934;-80
2024/01/07 09:06:36;;;;;;;;;8.25;5.50;;;;;-146.67;100.00;57155.34;5061353;28;61897;-80
2024/01/07 09:09:01;;;;;;;;;6.00;5.00;;;;;-146.67;100.00;57155.34;5043849;28;61807;-80
2024/01/07 09:11:27;;;;;;;;;6.00;6.00;;;;;-146.67;100.00;57155.34;5045538;28;63562;-80
2024/01/07 09:13:52;;;;;;;;;9.75;2.75;;;;;-146.67;100.00;57155.34;5064758;28;61784;-80
2024/01/07 09:16:17;;;;;;;;;8.00;8.00;;;;;-146.67;100.00;57155.34;5065093;28;61950;-81
2024/01/07 09:18:46;;;;;;;;;16.50;11.50;;;;;-146.67;100.00;57155.34;5065246;28;61766;-80
2024/01/07 09:21:12;;;;;;;;;12.75;9.00;;;;;-146.67;100.00;57155.34;5064456;28;62108;-80
2024/01/07 09:23:37;;;;;;;;;10.00;10.00;;;;;-146.67;100.00;57155.34;5046912;28;61792;-81
2024/01/07 09:26:03;;;;;;;;;11.00;9.50;;;;;-146.67;100.00;57155.34;5064244;28;61914;-80
2024/01/07 09:28:28;;;;;;;;;12.50;9.00;;;;;-146.67;100.00;57155.34;5065303;28;61941;-81
2024/01/07 09:30:53;;;;;;;;;14.75;12.75;;;;;-146.67;100.00;57155.34;5064216;28;61853;-79
2024/01/07 09:33:19;;;;;;;;;17.75;13.75;;;;;-146.67;100.00;57155.34;5046701;28;61728;-80
2024/01/07 09:35:45;;;;;;;;;20.00;16.50;;;;;-146.67;100.00;57155.34;5064694;28;62383;-80
2024/01/07 09:38:11;;;;;;;;;13.50;9.00;;;;;-146.67;100.00;57155.34;5046658;28;62126;-79
2024/01/07 09:40:39;;;;;;;;;19.75;13.00;;;;;-146.67;100.00;57155.34;5063467;28;61823;-80
2024/01/07 09:43:04;;;;;;;;;15.00;12.25;;;;;-146.67;100.00;57155.34;5064685;28;61873;-80
2024/01/07 09:45:30;;;;;;;;;16.25;10.00;;;;;-146.67;100.00;57155.34;5046736;28;61779;-80
2024/01/07 09:47:56;;;;;;;;;15.25;9.50;;;;;-146.67;100.00;57155.34;5065425;28;62025;-80
2024/01/07 09:50:22;;;;;;;;;14.25;9.50;;;;;-146.67;100.00;57155.34;5064018;28;61701;-80
2024/01/07 09:52:48;;;;;;;;;13.50;10.00;;;;;-146.67;100.00;57155.34;5064508;28;61672;-79
2024/01/07 09:55:26;;;;;;;;;15.00;14.00;;;;;-146.67;100.00;57155.34;5065097;28;62105;-80
2024/01/07 09:57:51;;;;;;;;;11.75;9.75;;;;;-146.67;100.00;57155.34;5064659;28;61776;-80
2024/01/07 10:00:17;;;;;;;;;14.75;9.25;;;;;-146.67;100.00;57155.34;5063769;28;62103;-80
2024/01/07 10:02:43;;;;;;;;;12.25;11.00;;;;;-146.67;100.00;57155.34;5046153;28;61818;-80
2024/01/07 10:05:08;;;;;;;;;19.25;14.00;;;;;-146.67;100.00;57155.34;5064139;28;61878;-80
2024/01/07 10:07:34;;;;;;;;;21.75;17.00;;;;;-146.67;100.00;57155.34;5063710;28;62358;-80
2024/01/07 10:10:11;;;;;;;;;15.50;11.50;;;;;-146.67;100.00;57155.34;5062488;28;63596;-80
2024/01/07 10:12:37;;;;;;;;;15.25;15.00;;;;;-146.67;100.00;57155.34;5063674;28;61835;-80
2024/01/07 10:15:02;;;;;;;;;14.00;14.00;;;;;-146.67;100.00;57155.34;5064670;28;61802;-80
2024/01/07 10:17:29;;;;;;;;;17.75;14.00;;;;;-146.67;100.00;57155.34;5062824;28;62190;-80
2024/01/07 10:19:54;;;;;;;;;12.25;6.50;;;;;-146.67;100.00;57155.34;5063692;28;61877;-80
2024/01/07 10:22:19;;;;;;;;;12.50;11.75;;;;;-146.67;100.00;57155.34;5062228;28;61857;-80
2024/01/07 10:24:45;;;;;;;;;12.75;9.25;;;;;-146.67;100.00;57155.34;5064139;28;61968;-81
2024/01/07 10:27:10;;;;;;;;;11.50;11.50;;;;;-146.67;100.00;57155.34;5064026;28;61750;-80
2024/01/07 10:29:36;;;;;;;;;15.25;14.00;;;;;-146.67;100.00;57155.34;5063529;28;62770;-80
2024/01/07 10:32:04;;;;;;;;;12.75;9.75;;;;;-146.67;100.00;57155.34;5063934;28;62032;-80
2024/01/07 10:34:34;;;;;;;;;9.50;9.50;;;;;-146.67;100.00;57155.34;5063488;28;61750;-80
2024/01/07 10:37:01;;;;;;;;;20.50;10.25;;;;;-146.67;100.00;57155.34;5063794;28;61782;-80
2024/01/07 10:39:30;;;;;;;;;12.25;10.25;;;;;-146.67;100.00;57155.34;5063340;28;63002;-80
2024/01/07 10:41:59;;;;;;;;;14.25;10.75;;;;;-146.67;100.00;57155.34;5061906;28;62079;-79
2024/01/07 10:44:31;;;;;;;;;20.25;11.00;;;;;-146.67;100.00;57155.34;5063889;28;62036;-80
2024/01/07 10:46:57;;;;;;;;;15.00;13.50;;;;;-146.67;100.00;57155.34;5064019;28;61999;-80
2024/01/07 10:49:24;;;;;;;;;13.75;10.00;;;;;-146.67;100.00;57155.34;5062847;28;62863;-80
2024/01/07 10:52:10;;;;;;;;;10.75;9.25;;;;;-146.67;100.00;57155.34;5063305;28;62015;-80
2024/01/07 10:54:37;;;;;;;;;17.75;14.00;;;;;-146.67;100.00;57155.34;5062214;28;61989;-80
2024/01/07 10:57:12;;;;;;;;;12.25;10.50;;;;;-146.67;100.00;57155.34;5063738;28;61726;-80
2024/01/07 10:59:40;;;;;;;;;13.00;13.00;;;;;-146.67;100.00;57155.34;5062988;28;62675;-80